Time;durP1;ratioP1;P1;durP2;ratioP2;P2;SDS_P1;SDS_P2;PMS_P1;PMS_P2;Temp;Humidity;BMP_temperature;BMP_pressure;BME280_temperature;BME280_humidity;BME280_pressure;Samples;Min_cycle;Max_cycle;Signal;HPM_P1;HPM_P2
2020/02/18 00:02:17;;;;;;;5.1;1.7;;;;;;;6.56;93.69238;964.8739;;;;
2020/02/18 00:04:42;;;;;;;6.7;3.3;;;;;;;6.66;93.07715;964.815;;;;
2020/02/18 00:07:07;;;;;;;5.4;1.9;;;;;;;6.74;91.31543;964.8161;;;;
2020/02/18 00:09:32;;;;;;;3.2;1.1;;;;;;;6.63;91.41602;964.7836;;;;
2020/02/18 00:11:57;;;;;;;3.7;1.7;;;;;;;6.61;92.20898;964.815;;;;
2020/02/18 00:14:23;;;;;;;4.5;1.2;;;;;;;6.59;91.46582;965.0251;;;;
2020/02/18 00:16:48;;;;;;;3.7;1.2;;;;;;;6.62;91.65332;964.8837;;;;
2020/02/18 00:19:13;;;;;;;3.8;0.9;;;;;;;6.64;90.75684;964.9297;;;;
2020/02/18 00:21:38;;;;;;;3.7;1.1;;;;;;;6.63;91.78125;965.0096;;;;
2020/02/18 00:24:03;;;;;;;3.5;1;;;;;;;6.63;90.00391;965.0519;;;;
2020/02/18 00:26:28;;;;;;;3.5;1;;;;;;;6.62;90.00195;965.0289;;;;
2020/02/18 00:28:53;;;;;;;3.3;0.9;;;;;;;6.6;90.41797;965.0099;;;;
2020/02/18 00:31:18;;;;;;;4.2;1.1;;;;;;;6.62;89.96582;965.0579;;;;
2020/02/18 00:33:44;;;;;;;3.3;1;;;;;;;6.69;90.17676;965.1411;;;;
2020/02/18 00:36:09;;;;;;;2;0.9;;;;;;;6.67;89.56641;965.1561;;;;
2020/02/18 00:38:34;;;;;;;3.6;0.9;;;;;;;6.59;89.39063;965.2048;;;;
2020/02/18 00:40:59;;;;;;;2.8;0.9;;;;;;;6.55;89.95117;965.166;;;;
2020/02/18 00:43:26;;;;;;;3.1;1;;;;;;;6.54;89.61816;965.2153;;;;
2020/02/18 00:45:51;;;;;;;1.9;0.7;;;;;;;6.57;89.08789;965.249;;;;
2020/02/18 00:48:16;;;;;;;3.1;0.9;;;;;;;6.63;88.37109;965.3569;;;;
2020/02/18 00:50:41;;;;;;;2.8;0.8;;;;;;;6.55;89.25586;965.3962;;;;
2020/02/18 00:53:06;;;;;;;2.5;0.8;;;;;;;6.63;88.31445;965.4387;;;;
2020/02/18 00:55:31;;;;;;;2.4;0.9;;;;;;;6.66;88.18457;965.5276;;;;
2020/02/18 00:57:56;;;;;;;2.1;0.9;;;;;;;6.56;86.86426;965.5995;;;;
2020/02/18 01:00:48;;;;;;;3;0.8;;;;;;;6.63;87.04883;965.6688;;;;
2020/02/18 01:03:14;;;;;;;2.5;0.7;;;;;;;6.71;86.81543;965.6911;;;;
2020/02/18 01:05:39;;;;;;;2.8;0.7;;;;;;;6.63;87.21973;965.7505;;;;
2020/02/18 01:08:17;;;;;;;2.1;0.7;;;;;;;6.58;86.51465;965.6863;;;;
2020/02/18 01:15:26;;;;;;;2.9;0.8;;;;;;;6.61;87.30469;965.9681;;;;
2020/02/18 01:17:44;;;;;;;1.6;0.6;;;;;;;6.57;86.55664;965.9842;;;;
2020/02/18 01:20:09;;;;;;;1.5;0.7;;;;;;;6.68;86.46582;966.1255;;;;
2020/02/18 01:22:34;;;;;;;2.8;0.7;;;;;;;6.6;85.50293;966.1234;;;;
2020/02/18 01:24:59;;;;;;;2.8;1;;;;;;;6.63;86.52344;966.0891;;;;
2020/02/18 01:27:24;;;;;;;3.4;0.9;;;;;;;6.44;86.89648;965.9769;;;;
2020/02/18 01:29:50;;;;;;;1.5;0.6;;;;;;;6.48;88.00879;965.981;;;;
2020/02/18 01:32:15;;;;;;;2;0.7;;;;;;;6.45;87.62793;965.9789;;;;
2020/02/18 01:34:40;;;;;;;3.5;0.8;;;;;;;6.5;86.73633;965.995;;;;
2020/02/18 01:37:05;;;;;;;1.9;0.6;;;;;;;6.41;86.00195;966.0243;;;;
2020/02/18 01:39:30;;;;;;;2.6;0.9;;;;;;;6.41;85.89941;966.0112;;;;
2020/02/18 01:41:55;;;;;;;3.1;0.8;;;;;;;6.39;85.99805;966.1204;;;;
2020/02/18 01:44:20;;;;;;;2.5;0.8;;;;;;;6.36;86.53809;966.0129;;;;
2020/02/18 01:46:45;;;;;;;2.1;0.8;;;;;;;6.28;85.65723;966.0347;;;;
2020/02/18 01:49:10;;;;;;;2.2;0.9;;;;;;;6.27;85.52832;966.0273;;;;
2020/02/18 01:51:35;;;;;;;2.8;0.7;;;;;;;6.25;86.09473;966.0862;;;;
2020/02/18 01:54:00;;;;;;;1.6;0.6;;;;;;;6.22;85.82715;966.0919;;;;
2020/02/18 01:56:25;;;;;;;2.5;0.7;;;;;;;6.16;85.59766;966.1068;;;;
2020/02/18 01:58:51;;;;;;;1.6;0.7;;;;;;;6.11;85.23438;966.088;;;;
2020/02/18 02:01:16;;;;;;;1.5;0.7;;;;;;;6.13;85.78613;966.0938;;;;
2020/02/18 02:03:41;;;;;;;2.2;0.6;;;;;;;6.2;85.25195;966.097;;;;
2020/02/18 02:06:06;;;;;;;2.9;0.8;;;;;;;6.21;85.17383;966.1898;;;;
2020/02/18 02:08:31;;;;;;;2.6;0.8;;;;;;;6.15;84.50293;966.1926;;;;
2020/02/18 02:10:56;;;;;;;1.7;0.8;;;;;;;6.09;84.63867;966.1819;;;;
2020/02/18 02:13:22;;;;;;;1.8;0.6;;;;;;;6.04;84.68457;966.1711;;;;
2020/02/18 02:15:47;;;;;;;2.6;0.7;;;;;;;6.04;84.45898;966.1919;;;;
2020/02/18 02:18:12;;;;;;;2.3;0.7;;;;;;;6.03;84.87793;966.23;;;;
2020/02/18 02:22:03;;;;;;;1.8;0.6;;;;;;;5.94;83.50586;966.225;;;;
2020/02/18 02:24:28;;;;;;;2.5;0.8;;;;;;;5.89;82.88965;966.3019;;;;
2020/02/18 02:26:54;;;;;;;1.5;0.7;;;;;;;5.89;83.74414;966.255;;;;
2020/02/18 02:29:19;;;;;;;2.5;0.8;;;;;;;5.86;84.51465;966.2084;;;;
2020/02/18 02:31:44;;;;;;;1.9;0.6;;;;;;;5.86;82.80469;966.2059;;;;
2020/02/18 02:34:09;;;;;;;2.9;0.8;;;;;;;5.74;83.18066;966.25;;;;
2020/02/18 02:36:34;;;;;;;2.2;0.7;;;;;;;5.84;82.66504;966.1292;;;;
2020/02/18 02:38:59;;;;;;;1.9;0.7;;;;;;;5.68;84.30859;966.1433;;;;
2020/02/18 02:41:24;;;;;;;2.7;0.8;;;;;;;5.64;83.55957;966.1301;;;;
2020/02/18 02:43:49;;;;;;;3.3;1;;;;;;;5.62;83.49805;966.2089;;;;
2020/02/18 02:46:14;;;;;;;3.6;1;;;;;;;5.63;82.93262;966.2558;;;;
2020/02/18 02:48:39;;;;;;;3;1;;;;;;;5.56;82.90723;966.1624;;;;
2020/02/18 02:51:04;;;;;;;3.2;1;;;;;;;5.54;82.9248;966.1955;;;;
2020/02/18 02:53:29;;;;;;;3.8;1;;;;;;;5.49;82.5752;966.2198;;;;
2020/02/18 02:55:55;;;;;;;3;0.9;;;;;;;5.47;82.03711;966.3189;;;;
2020/02/18 02:58:20;;;;;;;3.5;1.1;;;;;;;5.44;83.50781;966.3828;;;;
2020/02/18 03:00:48;;;;;;;3;0.9;;;;;;;5.47;82.52734;966.4931;;;;
2020/02/18 03:03:10;;;;;;;3.3;1;;;;;;;5.36;82.80078;966.4398;;;;
2020/02/18 03:05:35;;;;;;;2.6;0.9;;;;;;;5.36;83.30078;966.5207;;;;
2020/02/18 03:08:04;;;;;;;3.9;1;;;;;;;5.32;82.81641;966.5847;;;;
2020/02/18 03:15:24;;;;;;;4.9;1;;;;;;;5.38;82.81348;966.6287;;;;
2020/02/18 03:17:55;;;;;;;3;1.1;;;;;;;5.41;81.79688;966.6902;;;;
2020/02/18 03:20:06;;;;;;;3.9;1.1;;;;;;;5.34;81.72852;966.7983;;;;
2020/02/18 03:22:31;;;;;;;4.2;1;;;;;;;5.44;82.63281;966.8426;;;;
2020/02/18 03:24:56;;;;;;;3.5;1;;;;;;;5.47;81.13867;966.9623;;;;
2020/02/18 03:27:21;;;;;;;3.6;1;;;;;;;5.42;80.58203;966.9242;;;;
2020/02/18 03:29:47;;;;;;;4;0.9;;;;;;;5.47;80.93164;966.9072;;;;
2020/02/18 03:32:12;;;;;;;3;1;;;;;;;5.47;81.11719;966.9554;;;;
2020/02/18 03:34:37;;;;;;;4.2;0.9;;;;;;;5.44;80.76953;966.9895;;;;
2020/02/18 03:37:07;;;;;;;2.8;0.9;;;;;;;5.46;81.9082;967.0215;;;;
2020/02/18 03:39:44;;;;;;;3.6;1;;;;;;;5.42;81.78711;966.9849;;;;
2020/02/18 03:41:58;;;;;;;3.4;1;;;;;;;5.42;82.20996;966.9406;;;;
2020/02/18 03:44:23;;;;;;;4;1.1;;;;;;;5.39;81.50977;967.0222;;;;
2020/02/18 03:46:48;;;;;;;2.6;1.1;;;;;;;5.43;80.7998;967.1139;;;;
2020/02/18 03:49:13;;;;;;;4.2;1.1;;;;;;;5.38;81.4375;967.0837;;;;
2020/02/18 03:51:38;;;;;;;3.7;1.1;;;;;;;5.4;81.96582;967.0485;;;;
2020/02/18 03:54:03;;;;;;;3.7;1;;;;;;;5.35;82.59277;967.0198;;;;
2020/02/18 03:56:28;;;;;;;4;1.1;;;;;;;5.36;82.28906;967.0396;;;;
2020/02/18 03:58:53;;;;;;;2.8;0.9;;;;;;;5.44;82.9873;967.0982;;;;
2020/02/18 04:02:28;;;;;;;2.6;0.9;;;;;;;5.42;83.4707;967.098;;;;
2020/02/18 04:04:53;;;;;;;4.3;0.9;;;;;;;5.34;84.77539;967.1483;;;;
2020/02/18 04:07:18;;;;;;;5;1;;;;;;;5.39;83.63574;967.2341;;;;
2020/02/18 04:09:43;;;;;;;4.1;1;;;;;;;5.54;84.61914;967.1842;;;;
2020/02/18 04:12:09;;;;;;;5.2;1;;;;;;;5.51;84.34082;967.2314;;;;
2020/02/18 04:14:34;;;;;;;3.8;1.1;;;;;;;5.38;84.81641;967.2592;;;;
2020/02/18 04:16:59;;;;;;;3.1;1;;;;;;;5.46;84.81055;967.283;;;;
2020/02/18 04:19:24;;;;;;;3.7;0.9;;;;;;;5.36;84.93652;967.3027;;;;
2020/02/18 04:21:49;;;;;;;3.6;1.1;;;;;;;5.34;84.79785;967.3261;;;;
2020/02/18 04:24:14;;;;;;;3.2;1;;;;;;;5.5;84.27148;967.2135;;;;
2020/02/18 04:26:39;;;;;;;3.3;1.1;;;;;;;5.37;84.97461;967.2678;;;;
2020/02/18 04:29:04;;;;;;;5.1;1.5;;;;;;;5.37;85.12207;967.3281;;;;
2020/02/18 04:31:29;;;;;;;5.5;1.1;;;;;;;5.29;85.24219;967.2981;;;;
2020/02/18 04:33:55;;;;;;;3.6;1.1;;;;;;;5.31;84.85938;967.2564;;;;
2020/02/18 04:36:20;;;;;;;4.5;1.1;;;;;;;5.24;84.92676;967.3063;;;;
2020/02/18 04:38:45;;;;;;;4;1.3;;;;;;;5.37;85.53125;967.2708;;;;
2020/02/18 04:41:10;;;;;;;3.7;1.1;;;;;;;5.47;84.6543;967.2869;;;;
2020/02/18 04:43:35;;;;;;;3.4;0.9;;;;;;;5.46;84.82129;967.2706;;;;
2020/02/18 04:46:05;;;;;;;4.5;1.1;;;;;;;5.43;84.60938;967.2594;;;;
2020/02/18 04:48:44;;;;;;;4.8;1.2;;;;;;;5.31;85.42773;967.3251;;;;
2020/02/18 04:50:51;;;;;;;4.3;1.2;;;;;;;5.37;85.32715;967.3242;;;;
2020/02/18 04:53:15;;;;;;;4;1;;;;;;;5.43;84.81445;967.2416;;;;
2020/02/18 04:55:40;;;;;;;3.7;1;;;;;;;5.43;85.55371;967.2762;;;;
2020/02/18 04:58:06;;;;;;;4.1;1;;;;;;;5.45;85.55859;967.2791;;;;
2020/02/18 05:00:31;;;;;;;5.2;1.1;;;;;;;5.4;85.50293;967.2992;;;;
2020/02/18 05:02:56;;;;;;;5.1;1.3;;;;;;;5.43;85.37109;967.243;;;;
2020/02/18 05:05:21;;;;;;;6.4;1.2;;;;;;;5.46;84.95801;967.2432;;;;
2020/02/18 05:07:46;;;;;;;5;1.5;;;;;;;5.48;84.00586;967.3395;;;;
2020/02/18 05:10:11;;;;;;;5.7;1.3;;;;;;;5.5;85.16992;967.329;;;;
2020/02/18 05:12:36;;;;;;;4;1.1;;;;;;;5.46;85.08105;967.3303;;;;
2020/02/18 05:15:01;;;;;;;5.2;1.2;;;;;;;5.45;84.30762;967.267;;;;
2020/02/18 05:17:26;;;;;;;4.3;1.1;;;;;;;5.46;84.30957;967.2183;;;;
2020/02/18 05:19:51;;;;;;;4.8;1.1;;;;;;;5.42;83.50684;967.1322;;;;
2020/02/18 05:22:16;;;;;;;6.4;1.4;;;;;;;5.49;84.67871;967.1209;;;;
2020/02/18 05:24:41;;;;;;;4.3;1.4;;;;;;;5.46;83;967.1372;;;;
2020/02/18 05:27:06;;;;;;;6.3;1.4;;;;;;;5.58;83.09277;967.1141;;;;
2020/02/18 05:29:31;;;;;;;4;1.2;;;;;;;5.65;82.59277;967.1069;;;;
2020/02/18 05:31:56;;;;;;;6;1.4;;;;;;;5.67;82.18652;967.1856;;;;
2020/02/18 05:34:21;;;;;;;5.2;1.3;;;;;;;5.73;81.22168;967.1735;;;;
2020/02/18 05:36:46;;;;;;;4.3;1.3;;;;;;;5.61;80.96094;967.2313;;;;
2020/02/18 05:39:12;;;;;;;6.6;1.4;;;;;;;5.61;81.08594;967.2766;;;;
2020/02/18 05:41:37;;;;;;;5.7;1.5;;;;;;;5.68;80.1875;967.2912;;;;
2020/02/18 05:44:02;;;;;;;5;1.4;;;;;;;5.61;80.10742;967.2921;;;;
2020/02/18 05:46:27;;;;;;;4.2;1.4;;;;;;;5.5;80.8252;967.3161;;;;
2020/02/18 05:48:52;;;;;;;6.7;1.2;;;;;;;5.53;81.24121;967.3615;;;;
2020/02/18 05:51:17;;;;;;;6.1;1.3;;;;;;;5.53;80.58105;967.4163;;;;
2020/02/18 05:53:43;;;;;;;4.2;1.4;;;;;;;5.43;81.5293;967.4963;;;;
2020/02/18 05:56:08;;;;;;;3.9;1.2;;;;;;;5.43;81.51855;967.443;;;;
2020/02/18 05:58:33;;;;;;;5.9;1.6;;;;;;;5.44;80.92871;967.4554;;;;
2020/02/18 06:00:58;;;;;;;6;1.3;;;;;;;5.34;81.68164;967.5237;;;;
2020/02/18 06:03:23;;;;;;;5.4;1.4;;;;;;;5.37;81.16504;967.5474;;;;
2020/02/18 06:05:48;;;;;;;6.1;1.5;;;;;;;5.36;81.61816;967.6188;;;;
2020/02/18 06:08:14;;;;;;;5.4;1.3;;;;;;;5.23;81.78613;967.5455;;;;
2020/02/18 06:10:39;;;;;;;7.5;1.6;;;;;;;5.24;81.58496;967.5908;;;;
2020/02/18 06:13:04;;;;;;;4.7;1.5;;;;;;;5.22;82.01172;967.558;;;;
2020/02/18 06:15:34;;;;;;;4.4;1.3;;;;;;;5.11;82.96777;967.6094;;;;
2020/02/18 06:17:58;;;;;;;5.5;1.6;;;;;;;5.11;82.95703;967.5942;;;;
2020/02/18 06:20:31;;;;;;;5.6;1.5;;;;;;;5.03;82.87402;967.6082;;;;
2020/02/18 06:22:44;;;;;;;5.1;1.3;;;;;;;5;83.32227;967.6145;;;;
2020/02/18 06:25:10;;;;;;;6.1;1.7;;;;;;;5.05;83.67188;967.5965;;;;
2020/02/18 06:27:35;;;;;;;5.8;1.3;;;;;;;5.01;82.77832;967.6222;;;;
2020/02/18 06:30:00;;;;;;;5.4;1.3;;;;;;;5.06;83.23047;967.6764;;;;
2020/02/18 06:32:30;;;;;;;5.8;1.5;;;;;;;5.03;83.22461;967.7096;;;;
2020/02/18 06:35:06;;;;;;;5.4;1.3;;;;;;;4.98;83.45508;967.6941;;;;
2020/02/18 06:37:15;;;;;;;6;1.5;;;;;;;5.01;83.73242;967.7933;;;;
2020/02/18 06:39:40;;;;;;;6.6;1.3;;;;;;;5.01;82.6084;967.8524;;;;
2020/02/18 06:42:05;;;;;;;5.2;1.6;;;;;;;5.03;83.06543;967.805;;;;
2020/02/18 06:44:30;;;;;;;3.5;1.2;;;;;;;5.15;83.37305;967.9681;;;;
2020/02/18 06:46:56;;;;;;;5.3;1.2;;;;;;;5.12;83.12891;967.9956;;;;
2020/02/18 06:49:21;;;;;;;5;1.4;;;;;;;5.21;82.86035;968.0398;;;;
2020/02/18 06:51:46;;;;;;;6.2;1.5;;;;;;;5.18;82.65234;968.0335;;;;
2020/02/18 06:54:11;;;;;;;4.8;1.5;;;;;;;5.11;82.71777;968.1652;;;;
2020/02/18 06:56:36;;;;;;;4.7;1.3;;;;;;;5.18;82.44629;968.1626;;;;
2020/02/18 06:59:02;;;;;;;5.9;1.4;;;;;;;5.21;82.03223;968.2322;;;;
2020/02/18 07:01:27;;;;;;;4.8;1.4;;;;;;;5.38;83.12109;968.2838;;;;
2020/02/18 07:03:52;;;;;;;7.1;1.6;;;;;;;5.36;82.24316;968.3035;;;;
2020/02/18 07:06:18;;;;;;;4.8;1.4;;;;;;;5.28;81.64648;968.315;;;;
2020/02/18 07:09:04;;;;;;;5.3;1.6;;;;;;;5.22;81.97754;968.3167;;;;
2020/02/18 07:11:27;;;;;;;5.2;1.4;;;;;;;5.22;82.70508;968.3408;;;;
2020/02/18 07:13:34;;;;;;;5.8;1.6;;;;;;;5.29;82.63867;968.367;;;;
2020/02/18 07:15:59;;;;;;;5.6;1.6;;;;;;;5.26;82.10938;968.4003;;;;
2020/02/18 07:18:24;;;;;;;5.8;1.7;;;;;;;5.22;82.10254;968.4356;;;;
2020/02/18 07:20:49;;;;;;;6;1.6;;;;;;;5.27;80.81641;968.4592;;;;
2020/02/18 07:23:14;;;;;;;6.3;1.5;;;;;;;5.28;81.1123;968.5073;;;;
2020/02/18 07:25:39;;;;;;;7.1;1.7;;;;;;;5.4;80.77246;968.5452;;;;
2020/02/18 07:28:04;;;;;;;6.6;1.5;;;;;;;5.43;80.1748;968.5267;;;;
2020/02/18 07:30:29;;;;;;;5.1;1.7;;;;;;;5.44;79.66406;968.4963;;;;
2020/02/18 07:32:55;;;;;;;6;1.3;;;;;;;5.65;79.22656;968.5151;;;;
2020/02/18 07:35:20;;;;;;;6.6;1.8;;;;;;;5.75;79.52734;968.5264;;;;
2020/02/18 07:37:45;;;;;;;4.5;1.5;;;;;;;5.93;78.66309;968.6142;;;;
2020/02/18 07:40:10;;;;;;;5.4;1.6;;;;;;;5.76;79.12109;968.6303;;;;
2020/02/18 07:42:35;;;;;;;3.8;1.4;;;;;;;6.03;77.82715;968.6867;;;;
2020/02/18 07:45:00;;;;;;;6.3;2.1;;;;;;;5.77;77.90723;968.6548;;;;
2020/02/18 07:47:26;;;;;;;4.4;1.3;;;;;;;5.79;77.81934;968.6354;;;;
2020/02/18 07:49:51;;;;;;;8.8;1.8;;;;;;;5.82;77.26563;968.6169;;;;
2020/02/18 07:52:16;;;;;;;6.1;1.7;;;;;;;5.93;77.1377;968.6617;;;;
2020/02/18 07:54:41;;;;;;;6.2;2.1;;;;;;;5.87;77.19629;968.6282;;;;
2020/02/18 07:57:07;;;;;;;5.9;1.6;;;;;;;5.85;77.68066;968.6516;;;;
2020/02/18 07:59:32;;;;;;;6.1;1.5;;;;;;;5.96;76.84668;968.6275;;;;
2020/02/18 08:01:57;;;;;;;6.9;2;;;;;;;6.06;77.63867;968.7045;;;;
2020/02/18 08:04:22;;;;;;;6.6;1.5;;;;;;;6.05;76.65918;968.7584;;;;
2020/02/18 08:06:47;;;;;;;6.9;1.7;;;;;;;6.06;76.50098;968.771;;;;
2020/02/18 08:09:13;;;;;;;6.1;1.6;;;;;;;6.09;76.15332;968.7636;;;;
2020/02/18 08:11:38;;;;;;;7;1.7;;;;;;;6.04;75.91699;968.8245;;;;
2020/02/18 08:14:03;;;;;;;7.6;1.6;;;;;;;6.13;75.44336;968.7813;;;;
2020/02/18 08:18:53;;;;;;;7.9;1.8;;;;;;;6.14;76.22949;968.7985;;;;
2020/02/18 08:21:18;;;;;;;8.5;1.7;;;;;;;5.96;77.05078;968.7964;;;;
2020/02/18 08:23:44;;;;;;;7.7;1.6;;;;;;;5.87;76.73926;968.8845;;;;
2020/02/18 08:26:09;;;;;;;6.7;1.5;;;;;;;5.84;76.88379;968.8203;;;;
2020/02/18 08:28:34;;;;;;;6.1;1.7;;;;;;;5.88;75.91113;968.8909;;;;
2020/02/18 08:30:59;;;;;;;5.3;1.6;;;;;;;5.86;76.12305;968.8102;;;;
2020/02/18 08:33:24;;;;;;;4.9;1.4;;;;;;;5.94;76.62695;968.8391;;;;
2020/02/18 08:35:49;;;;;;;6.7;1.7;;;;;;;5.96;76.06055;968.8644;;;;
2020/02/18 08:38:14;;;;;;;6;1.9;;;;;;;5.86;76.94238;968.9186;;;;
2020/02/18 08:40:39;;;;;;;8.9;1.8;;;;;;;5.83;76.37988;968.8636;;;;
2020/02/18 08:43:04;;;;;;;6.3;1.7;;;;;;;5.86;74.17578;968.8271;;;;
2020/02/18 08:45:29;;;;;;;4.3;1.4;;;;;;;5.98;74.56055;968.7981;;;;
2020/02/18 08:47:54;;;;;;;5.6;1.3;;;;;;;6.05;74.13086;968.8134;;;;
2020/02/18 08:50:19;;;;;;;5.7;1.6;;;;;;;6.17;71.58789;968.8002;;;;
2020/02/18 08:52:45;;;;;;;6;1.3;;;;;;;6.15;71.68848;968.8064;;;;
2020/02/18 08:55:10;;;;;;;6.1;1.5;;;;;;;6.3;71.31348;968.916;;;;
2020/02/18 08:57:35;;;;;;;6.4;1.6;;;;;;;6.32;71.31543;968.9023;;;;
2020/02/18 09:00:01;;;;;;;5.1;1.5;;;;;;;6.39;72.18359;968.934;;;;
2020/02/18 09:02:26;;;;;;;7.3;1.6;;;;;;;6.35;71.66211;969.0211;;;;
2020/02/18 09:04:51;;;;;;;6.6;1.7;;;;;;;6.32;72.55762;968.9824;;;;
2020/02/18 09:07:16;;;;;;;7.3;2.1;;;;;;;6.42;73.11133;968.9711;;;;
2020/02/18 09:09:42;;;;;;;6.1;1.8;;;;;;;6.34;72.18555;968.9492;;;;
2020/02/18 09:13:34;;;;;;;6.1;1.7;;;;;;;6.29;72.31543;968.9585;;;;
2020/02/18 09:20:05;;;;;;;7.1;1.8;;;;;;;6.37;72.37305;969.0746;;;;
2020/02/18 09:23:16;;;;;;;5.3;1.8;;;;;;;6.57;70.35547;969.0865;;;;
2020/02/18 09:26:27;;;;;;;5.7;1.6;;;;;;;6.63;69.9082;969.0302;;;;
2020/02/18 09:29:37;;;;;;;6.9;1.7;;;;;;;6.57;69.95605;969.0062;;;;
2020/02/18 09:32:48;;;;;;;7;1.9;;;;;;;6.67;69.26367;969.0069;;;;
2020/02/18 09:35:59;;;;;;;6.7;1.7;;;;;;;6.92;68.59668;969.2947;;;;
2020/02/18 09:39:09;;;;;;;5.3;1.3;;;;;;;6.91;68.52832;969.0483;;;;
2020/02/18 09:42:19;;;;;;;4.7;1.6;;;;;;;7.01;67.99609;969.0725;;;;
2020/02/18 09:45:30;;;;;;;6.9;1.7;;;;;;;6.96;67.65625;969.1233;;;;
2020/02/18 09:48:40;;;;;;;4.8;1.7;;;;;;;7.02;67.15234;969.0518;;;;
2020/02/18 09:51:51;;;;;;;7.3;1.6;;;;;;;7.16;66.86523;969.0552;;;;
2020/02/18 09:55:01;;;;;;;6.1;1.4;;;;;;;7.06;67.50098;969.0829;;;;
2020/02/18 09:58:12;;;;;;;5.6;1.9;;;;;;;7.09;66.53613;969.1578;;;;
2020/02/18 10:01:22;;;;;;;5.5;2.2;;;;;;;6.79;65.58691;968.9897;;;;
2020/02/18 10:04:33;;;;;;;5.9;1.8;;;;;;;6.96;64.95313;969.0806;;;;
2020/02/18 10:07:43;;;;;;;5.6;2;;;;;;;7.03;65.85254;969.159;;;;
2020/02/18 10:10:54;;;;;;;7.7;2.5;;;;;;;7.1;66.27344;969.1082;;;;
2020/02/18 10:14:05;;;;;;;6.2;2;;;;;;;7.13;65.11426;969.007;;;;
2020/02/18 10:17:15;;;;;;;5.4;2.7;;;;;;;7.19;64.98633;969.0162;;;;
2020/02/18 10:20:26;;;;;;;5;1.9;;;;;;;7.24;64.59375;969.0328;;;;
2020/02/18 10:23:36;;;;;;;4.1;1.6;;;;;;;7.24;62.13867;968.9922;;;;
2020/02/18 10:26:47;;;;;;;4.9;1.7;;;;;;;7.32;61.60156;969.0075;;;;
2020/02/18 10:29:58;;;;;;;5.1;2;;;;;;;7.28;62.72754;968.9724;;;;
2020/02/18 10:33:08;;;;;;;5.3;1.5;;;;;;;7.5;62.28027;969.0363;;;;
2020/02/18 10:36:19;;;;;;;3.8;1.2;;;;;;;7.62;62.49121;969.0386;;;;
2020/02/18 10:39:29;;;;;;;5.8;2.1;;;;;;;7.68;62.24902;969.0956;;;;
2020/02/18 10:42:40;;;;;;;5.4;2.2;;;;;;;7.73;61.29395;969.0677;;;;
2020/02/18 10:45:52;;;;;;;5;2;;;;;;;7.55;61.78516;969.0882;;;;
2020/02/18 10:49:03;;;;;;;4.9;1.7;;;;;;;7.53;61.65527;968.9783;;;;
2020/02/18 10:52:13;;;;;;;4;1.4;;;;;;;7.57;61.21484;969.0284;;;;
2020/02/18 10:55:24;;;;;;;3.2;1.5;;;;;;;7.47;59.9668;968.9278;;;;
2020/02/18 10:58:34;;;;;;;4.7;1.4;;;;;;;7.32;59.7168;969.0383;;;;
2020/02/18 11:01:45;;;;;;;3.9;1.9;;;;;;;7.38;59.47461;969.0118;;;;
2020/02/18 11:04:55;;;;;;;5.8;2;;;;;;;7.25;58.65723;969.0733;;;;
2020/02/18 11:08:07;;;;;;;6.4;2;;;;;;;7.23;58.2998;969.1086;;;;
2020/02/18 11:21:52;;;;;;;4.2;1.4;;;;;;;7.44;57.5293;968.7936;;;;
2020/02/18 11:25:03;;;;;;;5.4;2;;;;;;;7.39;57.60156;968.8554;;;;
2020/02/18 11:28:14;;;;;;;4.9;2.1;;;;;;;7.49;58.00391;968.8898;;;;
2020/02/18 11:31:24;;;;;;;5.7;1.8;;;;;;;7.78;57.48242;968.8699;;;;
2020/02/18 11:34:35;;;;;;;4.4;1.5;;;;;;;7.71;56.81055;968.8391;;;;
2020/02/18 11:37:45;;;;;;;4.7;1.5;;;;;;;7.77;56.36133;968.827;;;;
2020/02/18 11:40:56;;;;;;;5.1;1.4;;;;;;;7.89;57.25781;968.769;;;;
2020/02/18 11:44:06;;;;;;;6;2.1;;;;;;;8.02;56.66895;968.7165;;;;
2020/02/18 11:47:28;;;;;;;6.1;2.7;;;;;;;8.09;56.2666;968.7366;;;;
2020/02/18 11:50:38;;;;;;;5.6;2.2;;;;;;;7.84;56.81738;968.6664;;;;
2020/02/18 11:53:49;;;;;;;5.7;1.4;;;;;;;7.65;57.30566;968.742;;;;
2020/02/18 11:57:00;;;;;;;5.6;1.4;;;;;;;7.76;56.9209;968.6661;;;;
2020/02/18 12:00:11;;;;;;;5.7;1.6;;;;;;;7.84;56.70117;968.5633;;;;
2020/02/18 12:03:21;;;;;;;5.7;1.5;;;;;;;7.69;56.73926;968.5648;;;;
2020/02/18 12:06:32;;;;;;;3.3;1.4;;;;;;;7.68;55.8916;968.5892;;;;
2020/02/18 12:09:42;;;;;;;4.6;1.4;;;;;;;7.67;56.06152;968.5963;;;;
2020/02/18 12:12:53;;;;;;;4.7;1.4;;;;;;;7.7;56.90137;968.5726;;;;
2020/02/18 12:16:04;;;;;;;4.5;1.1;;;;;;;7.66;56.10742;968.4978;;;;
2020/02/18 12:19:20;;;;;;;5;1.5;;;;;;;7.78;55.83594;968.5014;;;;
2020/02/18 12:25:59;;;;;;;4;1.5;;;;;;;7.73;57.33984;968.4247;;;;
2020/02/18 12:29:09;;;;;;;6.6;1.7;;;;;;;7.62;56.93457;968.4528;;;;
2020/02/18 12:32:20;;;;;;;4.8;1.6;;;;;;;7.71;57.10645;968.5101;;;;
2020/02/18 12:35:30;;;;;;;6.7;1.6;;;;;;;7.82;57.22656;968.4788;;;;
2020/02/18 12:38:41;;;;;;;4.4;1.5;;;;;;;7.51;57.37891;968.5105;;;;
2020/02/18 12:41:51;;;;;;;4.6;1.4;;;;;;;7.51;57.12598;968.4687;;;;
2020/02/18 12:45:02;;;;;;;4.5;1.2;;;;;;;7.53;56.83398;968.5146;;;;
2020/02/18 12:48:13;;;;;;;4.7;1.6;;;;;;;7.87;57.92969;968.4949;;;;
2020/02/18 12:51:23;;;;;;;4.7;1.3;;;;;;;7.86;57.53906;968.4099;;;;
2020/02/18 12:54:34;;;;;;;5.8;1.5;;;;;;;8.21;56.8877;968.4428;;;;
2020/02/18 12:57:44;;;;;;;5.4;1.6;;;;;;;8.08;56.81445;968.4246;;;;
2020/02/18 13:01:00;;;;;;;5.9;1.4;;;;;;;8.24;57.08691;968.3134;;;;
2020/02/18 13:04:11;;;;;;;5.2;1.6;;;;;;;7.99;56.52832;968.2966;;;;
2020/02/18 13:07:35;;;;;;;4.4;1.3;;;;;;;8.2;56.90918;968.3661;;;;
2020/02/18 13:10:59;;;;;;;3.9;1.2;;;;;;;8.44;56.56348;968.3505;;;;
2020/02/18 13:14:16;;;;;;;5.2;1.4;;;;;;;8.29;55.91504;968.3156;;;;
2020/02/18 13:17:32;;;;;;;4.9;1.4;;;;;;;8.37;55.24902;968.4846;;;;
2020/02/18 13:27:47;;;;;;;5.5;1.6;;;;;;;8.58;55.39063;968.4;;;;
2020/02/18 13:38:12;;;;;;;5.1;1.4;;;;;;;8.43;53.93945;968.0884;;;;
2020/02/18 13:41:24;;;;;;;3.5;1.3;;;;;;;8.62;53.08105;968.0637;;;;
2020/02/18 13:44:34;;;;;;;3.7;1.1;;;;;;;8.57;53.80859;968.0488;;;;
2020/02/18 13:47:45;;;;;;;3.9;1.1;;;;;;;8.65;53.95508;967.9967;;;;
2020/02/18 13:50:56;;;;;;;4.3;1.3;;;;;;;8.4;53.18066;967.9355;;;;
2020/02/18 13:54:06;;;;;;;3.5;1.2;;;;;;;8.68;52.98535;967.9453;;;;
2020/02/18 13:57:17;;;;;;;4.9;1.2;;;;;;;8.43;53.4707;968.0033;;;;
2020/02/18 14:00:27;;;;;;;4.9;1.4;;;;;;;8.68;53.70801;968.0338;;;;
2020/02/18 14:03:37;;;;;;;4;1.1;;;;;;;8.61;54.36328;967.9526;;;;
2020/02/18 14:06:48;;;;;;;4.9;1.2;;;;;;;8.47;54.76953;967.8806;;;;
2020/02/18 14:09:58;;;;;;;5.9;1.3;;;;;;;8.66;54.96582;967.7656;;;;
2020/02/18 14:13:09;;;;;;;4.3;1.4;;;;;;;8.61;55.0957;967.7237;;;;
2020/02/18 14:16:20;;;;;;;5.3;1.5;;;;;;;8.55;55.76465;967.7628;;;;
2020/02/18 14:19:30;;;;;;;4.7;1.2;;;;;;;8.59;56.53711;967.8303;;;;
2020/02/18 14:23:00;;;;;;;5.1;1.4;;;;;;;8.25;56.9502;967.8272;;;;
2020/02/18 14:26:11;;;;;;;5.7;1.4;;;;;;;8.37;56.75;967.8298;;;;
2020/02/18 14:29:21;;;;;;;4.8;1.6;;;;;;;8.17;57.24902;967.9345;;;;
2020/02/18 14:32:32;;;;;;;5.7;1.5;;;;;;;8.14;57.02734;967.8645;;;;
2020/02/18 14:35:42;;;;;;;4.8;1.5;;;;;;;8.33;55.8623;967.812;;;;
2020/02/18 14:38:53;;;;;;;5.7;1.5;;;;;;;8.14;56.02051;967.7305;;;;
2020/02/18 14:42:04;;;;;;;4.3;1.3;;;;;;;8.23;54.93457;967.7758;;;;
2020/02/18 14:45:14;;;;;;;3.4;1.3;;;;;;;8.19;55.67188;967.7144;;;;
2020/02/18 14:48:25;;;;;;;4.5;1.1;;;;;;;8.18;55.625;967.775;;;;
2020/02/18 14:51:35;;;;;;;4.5;1.2;;;;;;;8.27;55.94531;967.7081;;;;
2020/02/18 14:54:46;;;;;;;6;1.6;;;;;;;8.39;55.16113;967.7451;;;;
2020/02/18 14:57:57;;;;;;;5;1.5;;;;;;;8.4;55.61914;967.8014;;;;
2020/02/18 15:01:08;;;;;;;4.1;1.2;;;;;;;8.44;55.65918;967.8422;;;;
2020/02/18 15:04:19;;;;;;;4.8;2.1;;;;;;;8.49;55.68848;967.7912;;;;
2020/02/18 15:07:29;;;;;;;4.5;1.7;;;;;;;8.43;56.72266;967.7147;;;;
2020/02/18 15:10:40;;;;;;;5.3;1.6;;;;;;;8.6;56.05762;967.6672;;;;
2020/02/18 15:13:51;;;;;;;5.3;1.7;;;;;;;8.57;55.89355;967.7011;;;;
2020/02/18 15:17:01;;;;;;;5;1.5;;;;;;;8.69;55.80566;967.6708;;;;
2020/02/18 15:20:12;;;;;;;5;1.5;;;;;;;8.52;56.26563;967.6308;;;;
2020/02/18 15:30:21;;;;;;;7.6;1.6;;;;;;;8.34;57.30664;967.6152;;;;
2020/02/18 15:40:35;;;;;;;4.7;1.4;;;;;;;8.11;58.5459;967.5394;;;;
2020/02/18 15:44:11;;;;;;;6.4;1.7;;;;;;;8.11;58.90137;967.5636;;;;
2020/02/18 15:47:22;;;;;;;5.5;1.5;;;;;;;8;57.67383;967.5697;;;;
2020/02/18 15:50:32;;;;;;;5.5;1.6;;;;;;;7.8;58.86914;967.5455;;;;
2020/02/18 15:53:43;;;;;;;6.5;1.9;;;;;;;7.77;57.98535;967.4931;;;;
2020/02/18 15:56:53;;;;;;;6.3;1.8;;;;;;;7.72;58.35547;967.5237;;;;
2020/02/18 16:00:04;;;;;;;4.5;1.7;;;;;;;7.94;58.75195;967.4737;;;;
2020/02/18 16:03:14;;;;;;;4.9;1.4;;;;;;;7.97;57.72559;967.4919;;;;
2020/02/18 16:06:25;;;;;;;4.9;1.6;;;;;;;7.99;57.64844;967.5278;;;;
2020/02/18 16:09:35;;;;;;;6.1;1.8;;;;;;;7.71;58.90332;967.4761;;;;
2020/02/18 16:12:46;;;;;;;5.3;1.7;;;;;;;7.65;58.74609;967.4359;;;;
2020/02/18 16:15:57;;;;;;;5.3;1.6;;;;;;;7.66;59.5127;967.4724;;;;
2020/02/18 16:19:09;;;;;;;5.1;1.6;;;;;;;7.62;59.58691;967.4412;;;;
2020/02/18 16:22:19;;;;;;;5;1.7;;;;;;;7.54;59.78223;967.4088;;;;
2020/02/18 16:25:30;;;;;;;5.4;1.6;;;;;;;7.53;59.19824;967.4608;;;;
2020/02/18 16:28:40;;;;;;;5;1.5;;;;;;;7.52;60.13379;967.4648;;;;
2020/02/18 16:31:51;;;;;;;4.7;1.5;;;;;;;7.4;59.76367;967.4392;;;;
2020/02/18 16:35:01;;;;;;;5;1.8;;;;;;;7.41;59.82129;967.3989;;;;
2020/02/18 16:38:12;;;;;;;4.3;1.7;;;;;;;7.42;59.1377;967.4289;;;;
2020/02/18 16:41:22;;;;;;;4.8;1.5;;;;;;;7.35;59.57324;967.4199;;;;
2020/02/18 16:44:33;;;;;;;7.6;1.9;;;;;;;7.35;59.50391;967.4375;;;;
2020/02/18 16:47:44;;;;;;;4.9;1.9;;;;;;;7.34;59.48047;967.4244;;;;
2020/02/18 16:50:54;;;;;;;5.5;1.9;;;;;;;7.27;59.42383;967.4671;;;;
2020/02/18 16:54:05;;;;;;;6.3;1.5;;;;;;;7.25;59;967.4771;;;;
2020/02/18 16:57:15;;;;;;;5.6;1.7;;;;;;;7.32;59.4668;967.5208;;;;
2020/02/18 17:00:26;;;;;;;5.1;1.8;;;;;;;7.12;59.32422;967.5492;;;;
2020/02/18 17:03:36;;;;;;;4.3;2;;;;;;;7.16;60.10645;967.5995;;;;
2020/02/18 17:06:47;;;;;;;5.1;1.7;;;;;;;7.26;58.77344;967.5553;;;;
2020/02/18 17:09:58;;;;;;;6.4;2;;;;;;;7.03;59.58496;967.6005;;;;
2020/02/18 17:13:08;;;;;;;7.2;1.9;;;;;;;7.1;59.66406;967.6301;;;;
2020/02/18 17:16:19;;;;;;;5.7;2;;;;;;;7;59.45703;967.6962;;;;